Terminal Aerodrome Forecast
Issued by NWS

Home | Current Version | Previous Version | Text Only | Print | Product List | Glossary On
Versions: 1 2 3 4 5 6 7 8 9 10 11 12 13 14
000
FTUS46 KOTX 242320
TAFMWH
TAF
KMWH 242320Z 2500/2524 20007KT P6SM SKC
     FM250400 26005KT P6SM SKC
     FM251200 35004KT P6SM SCT250
     FM251800 23006KT P6SM BKN250=

USA.gov is the U.S. government's official web portal to all federal, state and local government web resources and services.